createdAt,value
2022-12-12T00:00:24.143Z,3.70
2022-12-12T00:02:53.052Z,3.70
2022-12-12T00:05:22.019Z,3.64
2022-12-12T00:07:51.038Z,3.72
2022-12-12T00:10:22.123Z,3.69
2022-12-12T00:12:50.892Z,3.68
2022-12-12T00:15:19.667Z,3.71
2022-12-12T00:17:48.449Z,3.69
2022-12-12T00:20:17.356Z,3.65
2022-12-12T00:22:46.050Z,3.71
2022-12-12T00:25:15.267Z,3.63
2022-12-12T00:27:46.129Z,3.66
2022-12-12T00:30:15.407Z,3.65
2022-12-12T00:32:44.150Z,3.66
2022-12-12T00:35:13.296Z,3.62
2022-12-12T00:37:42.243Z,3.66
2022-12-12T00:40:13.705Z,3.60
2022-12-12T00:42:42.376Z,3.57
2022-12-12T00:45:13.715Z,3.50
2022-12-12T00:47:42.618Z,3.45
2022-12-12T00:50:11.992Z,3.42
2022-12-12T00:52:40.799Z,3.40
2022-12-12T00:55:13.323Z,3.40
2022-12-12T00:57:42.158Z,3.38
2022-12-12T01:00:17.125Z,3.39
2022-12-12T01:02:45.970Z,3.41
2022-12-12T01:05:15.730Z,3.37
2022-12-12T01:07:45.124Z,3.30
2022-12-12T01:10:14.016Z,3.32
2022-12-12T01:12:43.060Z,3.28
2022-12-12T01:15:14.832Z,3.30
2022-12-12T01:17:43.762Z,3.21
2022-12-12T01:20:20.265Z,3.17
2022-12-12T01:22:49.049Z,3.17
2022-12-12T01:25:19.660Z,3.14
2022-12-12T01:27:48.907Z,3.15
2022-12-12T01:30:23.483Z,3.12
2022-12-12T01:32:52.475Z,3.08
2022-12-12T01:35:21.424Z,3.06
2022-12-12T01:37:50.332Z,3.00
2022-12-12T01:40:24.585Z,3.00
2022-12-12T01:42:54.455Z,2.91
2022-12-12T01:46:19.603Z,2.84
2022-12-12T01:48:53.054Z,2.80
2022-12-12T01:51:25.928Z,2.76
2022-12-12T01:54:01.332Z,2.69
2022-12-12T01:56:30.438Z,2.68
2022-12-12T01:59:01.275Z,2.63
2022-12-12T02:01:32.903Z,2.54
2022-12-12T02:04:03.584Z,2.52
2022-12-12T02:06:33.062Z,2.48
2022-12-12T02:09:06.526Z,2.44
2022-12-12T02:11:43.048Z,2.35
2022-12-12T02:14:12.671Z,2.31
2022-12-12T02:17:20.412Z,2.22
2022-12-12T02:20:45.002Z,2.19
2022-12-12T02:23:58.410Z,2.09
2022-12-12T02:27:05.482Z,2.06
2022-12-12T02:30:07.218Z,2.06
2022-12-12T02:32:59.701Z,1.99
2022-12-12T02:35:37.280Z,1.97
2022-12-12T02:38:17.263Z,1.96
2022-12-12T02:40:55.903Z,1.94
2022-12-12T02:43:36.293Z,1.94
2022-12-12T02:46:09.865Z,1.94
2022-12-12T02:48:47.630Z,1.92
2022-12-12T02:51:18.659Z,1.94
2022-12-12T02:53:47.358Z,1.98
2022-12-12T02:56:51.275Z,1.94
2022-12-12T02:59:26.316Z,1.91
2022-12-12T03:02:44.566Z,1.91
2022-12-12T03:05:49.389Z,1.83
2022-12-12T03:08:35.754Z,1.78
2022-12-12T03:11:10.169Z,1.75
2022-12-12T03:13:48.909Z,1.72
2022-12-12T03:16:29.017Z,1.68
2022-12-12T03:19:07.150Z,1.68
2022-12-12T03:21:45.999Z,1.62
2022-12-12T03:24:27.008Z,1.56
2022-12-12T03:27:01.884Z,1.50
2022-12-12T03:29:35.951Z,1.48
2022-12-12T03:32:10.571Z,1.46
2022-12-12T03:34:44.642Z,1.45
2022-12-12T03:37:21.572Z,1.40
2022-12-12T03:39:54.783Z,1.40
2022-12-12T03:42:30.295Z,1.38
2022-12-12T03:45:07.551Z,1.29
2022-12-12T03:47:42.188Z,1.31
2022-12-12T03:50:19.220Z,1.25
2022-12-12T03:52:56.202Z,1.26
2022-12-12T03:55:32.108Z,1.26
2022-12-12T03:58:07.614Z,1.21
2022-12-12T04:00:38.367Z,1.21
2022-12-12T04:03:16.060Z,1.21
2022-12-12T04:06:12.695Z,1.16
2022-12-12T04:09:03.820Z,1.18
2022-12-12T04:11:57.524Z,1.17
2022-12-12T04:14:45.355Z,1.17
2022-12-12T04:17:19.527Z,1.12
2022-12-12T04:20:21.967Z,1.19
2022-12-12T04:23:17.558Z,1.11
2022-12-12T04:26:14.903Z,1.09
2022-12-12T04:28:52.096Z,1.05
2022-12-12T04:31:25.519Z,1.02
2022-12-12T04:34:02.475Z,1.00
2022-12-12T04:36:33.555Z,0.98
2022-12-12T04:39:03.991Z,0.98
2022-12-12T04:41:38.748Z,0.94
2022-12-12T04:44:11.431Z,0.91
2022-12-12T04:46:42.536Z,0.88
2022-12-12T04:49:19.253Z,0.89
2022-12-12T04:51:52.931Z,0.85
2022-12-12T04:54:28.345Z,0.84
2022-12-12T04:57:03.041Z,0.83
2022-12-12T04:59:32.384Z,0.80
2022-12-12T05:02:08.847Z,0.78
2022-12-12T05:04:48.654Z,0.78
2022-12-12T05:07:24.393Z,0.73
2022-12-12T05:09:53.196Z,0.78
2022-12-12T05:12:23.942Z,0.71
2022-12-12T05:14:52.801Z,0.72
2022-12-12T05:17:32.183Z,0.72
2022-12-12T05:20:01.132Z,0.70
2022-12-12T05:22:29.810Z,0.71
2022-12-12T05:24:58.552Z,0.67
2022-12-12T05:27:29.221Z,0.65
2022-12-12T05:29:57.999Z,0.64
2022-12-12T05:32:26.744Z,0.63
2022-12-12T05:34:55.501Z,0.62
2022-12-12T05:37:24.332Z,0.62
2022-12-12T05:39:53.168Z,0.56
2022-12-12T05:42:21.915Z,0.56
2022-12-12T05:44:52.605Z,0.57
2022-12-12T05:47:21.335Z,0.54
2022-12-12T05:49:50.110Z,0.51
2022-12-12T05:52:18.911Z,0.51
2022-12-12T05:54:48.053Z,0.51
2022-12-12T05:57:16.775Z,0.50
2022-12-12T05:59:45.411Z,0.48
2022-12-12T06:02:17.197Z,0.48
2022-12-12T06:04:45.778Z,0.42
2022-12-12T06:07:14.507Z,0.42
2022-12-12T06:09:43.217Z,0.41
2022-12-12T06:12:11.926Z,0.40
2022-12-12T06:14:40.661Z,0.42
2022-12-12T06:17:09.436Z,0.38
2022-12-12T06:19:40.115Z,0.38
2022-12-12T06:22:09.249Z,0.38
2022-12-12T06:24:37.930Z,0.38
2022-12-12T06:27:06.792Z,0.37
2022-12-12T06:29:35.657Z,0.35
2022-12-12T06:32:04.496Z,0.36
2022-12-12T06:34:33.351Z,0.34
2022-12-12T06:37:04.530Z,0.35
2022-12-12T06:39:33.259Z,0.33
2022-12-12T06:42:02.270Z,0.32
2022-12-12T06:44:31.084Z,0.31
2022-12-12T06:46:59.908Z,0.29
2022-12-12T06:49:28.716Z,0.30
2022-12-12T06:51:57.437Z,0.27
2022-12-12T06:54:28.163Z,0.25
2022-12-12T06:56:57.164Z,0.24
2022-12-12T06:59:29.708Z,0.22
2022-12-12T07:01:58.857Z,0.25
2022-12-12T07:04:27.698Z,0.26
2022-12-12T07:06:57.568Z,0.22
2022-12-12T07:09:28.305Z,0.23
2022-12-12T07:12:00.222Z,0.16
2022-12-12T07:14:28.967Z,0.17
2022-12-12T07:16:57.744Z,0.15
2022-12-12T07:19:26.518Z,0.13
2022-12-12T07:21:55.309Z,0.13
2022-12-12T07:24:24.023Z,0.13
2022-12-12T07:26:54.687Z,0.15
2022-12-12T07:29:23.506Z,0.12
2022-12-12T07:31:52.309Z,0.08
2022-12-12T07:34:24.432Z,0.07
2022-12-12T07:36:56.542Z,0.06
2022-12-12T07:39:31.599Z,0.08
2022-12-12T07:42:02.319Z,0.06
2022-12-12T07:44:31.009Z,0.03
2022-12-12T07:47:00.402Z,0.03
2022-12-12T07:49:31.244Z,0.03
2022-12-12T07:51:59.991Z,0.03
2022-12-12T07:54:28.755Z,0.08
2022-12-12T07:56:57.531Z,0.08
2022-12-12T07:59:28.245Z,0.07
2022-12-12T08:01:57.262Z,0.07
2022-12-12T08:04:26.161Z,0.09
2022-12-12T08:07:02.765Z,0.14
2022-12-12T08:09:34.384Z,0.13
2022-12-12T08:12:03.110Z,0.17
2022-12-12T08:14:33.920Z,0.17
2022-12-12T08:17:02.713Z,0.20
2022-12-12T08:19:31.516Z,0.24
2022-12-12T08:22:00.352Z,0.28
2022-12-12T08:24:29.498Z,0.28
2022-12-12T08:26:58.296Z,0.33
2022-12-12T08:29:27.077Z,0.57
2022-12-12T08:31:57.984Z,0.81
2022-12-12T08:34:27.291Z,1.06
2022-12-12T08:36:56.129Z,1.21
2022-12-12T08:39:25.073Z,1.17
2022-12-12T08:41:54.024Z,1.12
2022-12-12T08:44:23.702Z,1.15
2022-12-12T08:46:52.647Z,1.48
2022-12-12T08:49:23.515Z,1.91
2022-12-12T08:51:52.309Z,2.58
2022-12-12T08:54:21.107Z,3.04
2022-12-12T08:59:22.705Z,3.87
2022-12-12T09:01:51.618Z,4.22
2022-12-12T09:04:20.527Z,4.59
2022-12-12T09:06:49.641Z,4.68
2022-12-12T09:09:18.317Z,4.83
2022-12-12T09:11:47.051Z,5.04
2022-12-12T09:14:15.776Z,5.08
2022-12-12T09:16:46.411Z,5.20
2022-12-12T09:19:15.163Z,5.49
2022-12-12T09:21:44.055Z,5.91
2022-12-12T09:24:12.771Z,6.13
2022-12-12T09:26:41.615Z,6.56
2022-12-12T09:29:12.283Z,6.70
2022-12-12T09:31:41.333Z,6.54
2022-12-12T09:34:12.044Z,6.64
2022-12-12T09:36:40.825Z,7.01
2022-12-12T09:39:09.568Z,7.07
2022-12-12T09:41:38.647Z,7.25
2022-12-12T09:44:11.387Z,7.56
2022-12-12T09:46:45.659Z,7.84
2022-12-12T09:49:29.023Z,8.02
2022-12-12T09:52:00.481Z,8.16
2022-12-12T09:54:30.016Z,8.12
2022-12-12T09:57:14.983Z,8.22
2022-12-12T09:59:49.471Z,8.45
2022-12-12T10:03:18.293Z,8.24
2022-12-12T10:06:20.684Z,8.29
2022-12-12T10:09:03.079Z,8.36
2022-12-12T10:11:49.742Z,8.47
2022-12-12T10:14:22.573Z,8.52
2022-12-12T10:16:57.395Z,8.55
2022-12-12T10:19:31.752Z,8.59
2022-12-12T10:22:10.367Z,8.68
2022-12-12T10:24:45.966Z,8.59
2022-12-12T10:27:16.040Z,8.73
2022-12-12T10:29:49.879Z,8.64
2022-12-12T10:32:37.211Z,8.59
2022-12-12T10:35:26.494Z,8.39
2022-12-12T10:38:13.167Z,8.76
2022-12-12T10:40:54.599Z,8.47
2022-12-12T10:43:28.767Z,8.56
2022-12-12T10:46:18.988Z,8.53
2022-12-12T10:48:50.103Z,8.59
2022-12-12T10:51:22.783Z,8.74
2022-12-12T10:53:53.765Z,8.54
2022-12-12T10:56:25.169Z,8.50
2022-12-12T10:58:56.334Z,8.54
2022-12-12T11:02:00.716Z,8.71
2022-12-12T11:04:18.423Z,8.62
2022-12-12T11:06:51.972Z,8.67
2022-12-12T11:09:25.653Z,8.86
2022-12-12T11:12:01.605Z,8.55
2022-12-12T11:14:38.250Z,8.51
2022-12-12T11:17:23.170Z,8.42
2022-12-12T11:19:56.417Z,8.35
2022-12-12T11:22:25.792Z,8.29
2022-12-12T11:24:56.829Z,8.27
2022-12-12T11:27:30.269Z,8.39
2022-12-12T11:30:02.236Z,8.51
2022-12-12T11:32:33.963Z,8.49
2022-12-12T11:35:06.386Z,8.72
2022-12-12T11:37:46.939Z,8.57
2022-12-12T11:40:27.117Z,8.39
2022-12-12T11:43:14.884Z,8.39
2022-12-12T11:45:43.660Z,8.47
2022-12-12T11:48:44.172Z,8.46
2022-12-12T11:51:13.576Z,8.62
2022-12-12T11:53:46.746Z,8.69
2022-12-12T11:56:40.365Z,8.56
2022-12-12T11:59:48.803Z,8.73
2022-12-12T12:03:06.200Z,8.71
2022-12-12T12:05:48.472Z,8.73
2022-12-12T12:08:40.174Z,8.53
2022-12-12T12:11:26.426Z,8.45
2022-12-12T12:14:17.027Z,8.29
2022-12-12T12:16:57.601Z,8.26
2022-12-12T12:19:37.483Z,7.76
2022-12-12T12:22:17.895Z,7.25
2022-12-12T12:25:17.939Z,6.79
2022-12-12T12:28:02.991Z,6.24
2022-12-12T12:30:35.978Z,5.82
2022-12-12T12:33:39.216Z,5.57
2022-12-12T12:36:21.153Z,5.34
2022-12-12T12:39:11.137Z,5.26
2022-12-12T12:41:58.991Z,5.11
2022-12-12T12:44:44.718Z,5.04
2022-12-12T12:47:28.548Z,4.85
2022-12-12T12:50:04.092Z,4.89
2022-12-12T12:52:41.532Z,4.71
2022-12-12T12:55:19.152Z,4.69
2022-12-12T12:57:51.313Z,4.61
2022-12-12T13:00:26.806Z,4.53
2022-12-12T13:03:03.552Z,4.46
2022-12-12T13:05:37.815Z,4.40
2022-12-12T13:08:18.682Z,4.38
2022-12-12T13:10:51.804Z,4.34
2022-12-12T13:13:26.261Z,4.25
2022-12-12T13:16:01.671Z,4.20
2022-12-12T13:18:44.446Z,4.09
2022-12-12T13:21:22.904Z,3.93
2022-12-12T13:24:00.775Z,3.86
2022-12-12T13:26:42.071Z,3.90
2022-12-12T13:29:45.050Z,3.83
2022-12-12T13:32:55.714Z,3.92
2022-12-12T13:35:30.568Z,3.83
2022-12-12T13:38:00.177Z,3.73
2022-12-12T13:40:33.070Z,3.73
2022-12-12T13:43:09.678Z,3.75
2022-12-12T13:45:45.745Z,3.72
2022-12-12T13:48:46.786Z,3.77
2022-12-12T13:51:40.137Z,3.72
2022-12-12T13:54:45.601Z,3.77
2022-12-12T13:57:23.903Z,3.75
2022-12-12T14:00:20.576Z,3.67
2022-12-12T14:03:07.632Z,3.66
2022-12-12T14:05:42.027Z,3.68
2022-12-12T14:08:25.513Z,3.66
2022-12-12T14:11:02.068Z,3.64
2022-12-12T14:13:42.251Z,3.63
2022-12-12T14:16:26.789Z,3.59
2022-12-12T14:19:04.983Z,3.57
2022-12-12T14:21:46.470Z,3.50
2022-12-12T14:25:02.984Z,3.44
2022-12-12T14:28:15.115Z,3.44
2022-12-12T14:31:03.398Z,3.41
2022-12-12T14:34:18.355Z,3.39
2022-12-12T14:37:23.496Z,3.38
2022-12-12T14:40:14.049Z,3.36
2022-12-12T14:43:16.432Z,3.34
2022-12-12T14:45:57.700Z,3.25
2022-12-12T14:48:32.139Z,3.26
2022-12-12T14:53:33.480Z,3.18
2022-12-12T14:56:08.944Z,3.19
2022-12-12T14:58:42.046Z,3.16
2022-12-12T15:01:11.229Z,3.09
2022-12-12T15:03:44.884Z,3.04
2022-12-12T15:06:39.325Z,2.97
2022-12-12T15:09:26.628Z,2.94
2022-12-12T15:11:58.276Z,2.87
2022-12-12T15:14:29.315Z,2.80
2022-12-12T15:17:04.360Z,2.76
2022-12-12T15:19:38.451Z,2.73
2022-12-12T15:22:13.262Z,2.74
2022-12-12T15:24:43.887Z,2.68
2022-12-12T15:27:21.251Z,2.63
2022-12-12T15:29:50.416Z,2.61
2022-12-12T15:32:22.456Z,2.54
2022-12-12T15:35:05.504Z,2.46
2022-12-12T15:37:35.833Z,2.42
2022-12-12T15:40:26.316Z,2.36
2022-12-12T15:42:59.893Z,2.32
2022-12-12T15:45:35.174Z,2.28
2022-12-12T15:48:08.553Z,2.25
